This is the latest recevied weather packets stored in our database for station/object WC0AA-WX. If no packets are shown the sender has not sent any weather packets the latest 10 day(s).
| Time | Temp. | Humidity | Pressure | Rain* | Wind** | Luminosity | Snow |
|---|---|---|---|---|---|---|---|
| 1787515921 | 21.11° C | 93% | 1019.2 hPa | 0.25 mm | - | - | - |
| 1787514722 | 21.11° C | 93% | 1019 hPa | 0.25 mm | - | - | - |
| 1787512321 | 21.11° C | 92% | 1019.1 hPa | 0 mm | - | - | - |
| 1787510521 | 21.11° C | 91% | 1019.7 hPa | 0 mm | - | - | - |
| 1787508719 | 21.67° C | 90% | 1020.6 hPa | 0 mm | - | - | - |
| 1787503321 | 21.67° C | 87% | 1021.4 hPa | 0 mm | - | - | - |
| 1787502723 | 21.67° C | 89% | 1021.2 hPa | 0 mm | - | - | - |
| 1787502121 | 21.67° C | 88% | 1021.1 hPa | 0 mm | - | - | - |
| 1787501518 | 21.67° C | 87% | 1021.1 hPa | 0 mm | - | - | - |
| 1787499718 | 21.11° C | 90% | 1021.5 hPa | 0 mm | - | - | - |
| 1787494288 | 19.44° C | 92% | 1021.3 hPa | 0 mm | - | - | - |
| 1787493686 | 19.44° C | 92% | 1021.1 hPa | 0 mm | - | - | - |
| 1787492486 | 18.89° C | 94% | 1020.9 hPa | 0 mm | - | - | - |
| 1787488265 | 17.22° C | 100% | 1020.1 hPa | 0 mm | - | - | - |
| 1787486455 | 15.56° C | 100% | 1019.8 hPa | 0 mm | - | - | - |
| 1787485855 | 15.56° C | 100% | 1019.6 hPa | 0 mm | - | - | - |
| 1787485255 | 15.56° C | 100% | 1019.4 hPa | 0 mm | - | - | - |
| 1787484655 | 15.56° C | 100% | 1019.4 hPa | 0 mm | - | - | - |
| 1787482225 | 16.11° C | 100% | 1019.5 hPa | 0 mm | - | - | - |
| 1787481025 | 16.11° C | 100% | 1019.6 hPa | 0 mm | - | - | - |
| 1787480426 | 16.67° C | 100% | 1019.7 hPa | 0 mm | - | - | - |
| 1787478596 | 16.67° C | 100% | 1019.9 hPa | 0 mm | - | - | - |
| 1787477996 | 16.67° C | 100% | 1020.2 hPa | 0 mm | - | - | - |
| 1787475594 | 16.67° C | 100% | 1020.5 hPa | 0 mm | - | - | - |
| 1787474394 | 17.22° C | 100% | 1020.4 hPa | 0 mm | - | - | - |
* Rain latest hour (hover to see other rain measurements)
** Current wind speed in m/s (hover to see current wind gust speed)